Time;durP1;ratioP1;P1;durP2;ratioP2;P2;SDS_P1;SDS_P2;PMS_P1;PMS_P2;Temp;Humidity;BMP_temperature;BMP_pressure;BME280_temperature;BME280_humidity;BME280_pressure;Samples;Min_cycle;Max_cycle;Signal;HPM_P1;HPM_P2
2023/12/23 00:02:42;;;;;;;9.43;5.27;;;;;;;17.67;58.44;96505.22;10392376;28;20446;-29
2023/12/23 00:07:42;;;;;;;8.85;5.50;;;;;;;17.70;58.39;96502.66;10396301;28;20037;-29
2023/12/23 00:12:43;;;;;;;10.37;4.67;;;;;;;17.71;58.49;96509.41;10392973;28;20044;-29
2023/12/23 00:17:43;;;;;;;11.97;5.23;;;;;;;17.70;58.58;96513.66;10404883;28;20034;-29
2023/12/23 00:22:44;;;;;;;9.23;4.80;;;;;;;17.67;58.45;96507.75;10390537;28;20036;-29
2023/12/23 00:27:44;;;;;;;12.80;5.30;;;;;;;17.66;58.44;96506.06;10401211;28;20033;-30
2023/12/23 00:32:46;;;;;;;11.27;5.47;;;;;;;17.65;58.68;96522.94;10385522;28;20160;-29
2023/12/23 00:37:46;;;;;;;9.45;5.22;;;;;;;17.66;58.77;96524.63;10400965;28;20037;-29
2023/12/23 00:42:47;;;;;;;6.97;4.77;;;;;;;17.68;58.52;96517.03;10401832;28;20041;-30
2023/12/23 00:47:47;;;;;;;11.33;4.73;;;;;;;17.71;58.34;96524.59;10401879;28;20048;-30
2023/12/23 00:52:47;;;;;;;13.73;6.30;;;;;;;17.70;58.64;96528.00;10397056;28;20038;-29
2023/12/23 00:57:48;;;;;;;11.47;4.70;;;;;;;17.66;58.65;96517.00;10402268;28;20037;-29
2023/12/23 01:02:48;;;;;;;12.43;5.17;;;;;;;17.70;58.51;96528.00;10395708;28;20029;-29
2023/12/23 01:07:48;;;;;;;12.50;5.37;;;;;;;17.52;58.66;96523.78;10393381;28;20041;-29
2023/12/23 01:12:49;;;;;;;9.90;4.77;;;;;;;17.67;58.61;96540.66;10401406;28;20694;-29
2023/12/23 01:17:49;;;;;;;8.03;5.10;;;;;;;17.70;58.49;96533.06;10394137;28;20029;-29
2023/12/23 01:22:49;;;;;;;9.07;4.97;;;;;;;17.68;58.36;96552.47;10400699;28;20034;-30
2023/12/23 01:27:50;;;;;;;9.03;5.00;;;;;;;17.68;58.47;96560.06;10399499;28;20026;-29
2023/12/23 01:32:50;;;;;;;8.77;3.67;;;;;;;17.51;58.80;96522.06;10398072;28;20079;-29
2023/12/23 01:37:50;;;;;;;8.87;5.13;;;;;;;17.67;58.30;96558.38;10396650;28;20694;-29
2023/12/23 01:42:51;;;;;;;8.18;4.25;;;;;;;17.65;58.63;96586.22;10394901;28;20507;-30
2023/12/23 01:47:52;;;;;;;11.98;4.40;;;;;;;17.68;58.60;96590.44;10393366;28;20040;-29
2023/12/23 01:52:56;;;;;;;13.20;4.15;;;;;;;17.63;58.63;96600.56;10402131;28;20029;-30
2023/12/23 01:57:57;;;;;;;8.57;4.45;;;;;;;17.65;58.79;96605.66;10398324;28;20037;-29
2023/12/23 02:02:59;;;;;;;9.45;4.55;;;;;;;17.65;58.79;96600.56;10393616;28;20046;-30
2023/12/23 02:08:01;;;;;;;5.85;3.70;;;;;;;17.67;58.53;96609.00;10400150;28;20076;-30
2023/12/23 02:13:16;;;;;;;10.20;4.15;;;;;;;17.66;58.60;96604.78;10384195;28;20033;-29
2023/12/23 02:18:19;;;;;;;7.50;4.27;;;;;;;17.66;58.67;96607.31;10399127;28;20033;-29
2023/12/23 02:23:19;;;;;;;8.23;4.93;;;;;;;17.65;58.76;96611.53;10388497;28;20284;-30
2023/12/23 02:28:22;;;;;;;9.10;3.85;;;;;;;17.64;58.86;96603.94;10397488;28;20709;-29
2023/12/23 02:33:23;;;;;;;8.75;4.18;;;;;;;17.67;58.57;96606.47;10393474;28;20037;-29
2023/12/23 02:38:23;;;;;;;9.38;3.80;;;;;;;17.66;58.84;96613.22;10400620;28;20500;-30
2023/12/23 02:43:24;;;;;;;7.50;3.93;;;;;;;17.66;59.00;96607.31;10395549;28;20040;-29
2023/12/23 02:48:24;;;;;;;10.87;4.23;;;;;;;17.70;58.93;96609.00;10393301;28;20492;-30
2023/12/23 02:53:24;;;;;;;7.67;4.00;;;;;;;17.68;58.60;96610.69;10396753;28;20037;-31
2023/12/23 02:58:25;;;;;;;6.40;3.73;;;;;;;17.66;59.23;96602.25;10398728;28;20049;-29
2023/12/23 03:03:25;;;;;;;12.70;4.17;;;;;;;17.66;59.01;96602.25;10400716;28;20318;-30
2023/12/23 03:08:25;;;;;;;8.17;3.60;;;;;;;17.64;58.63;96612.38;10396332;28;20367;-29
2023/12/23 03:13:26;;;;;;;8.18;3.50;;;;;;;17.65;59.05;96605.66;10398215;28;20083;-29
2023/12/23 03:18:26;;;;;;;7.77;3.57;;;;;;;17.65;58.76;96611.53;10388134;28;20132;-29
2023/12/23 03:23:27;;;;;;;8.80;3.70;;;;;;;17.69;58.82;96612.38;10394180;28;20037;-29
2023/12/23 03:28:27;;;;;;;8.97;4.07;;;;;;;17.69;58.74;96617.44;10397410;28;20033;-30
2023/12/23 03:33:27;;;;;;;7.00;3.10;;;;;;;17.65;58.77;96626.72;10396604;28;20500;-29
2023/12/23 03:38:28;;;;;;;12.07;3.73;;;;;;;17.67;58.88;96629.28;10403196;28;20088;-29
2023/12/23 03:43:28;;;;;;;8.23;3.93;;;;;;;17.64;58.92;96626.72;10399124;28;20037;-29
2023/12/23 03:48:28;;;;;;;13.13;4.33;;;;;;;17.63;58.86;96615.75;10402275;28;20037;-29
2023/12/23 03:53:29;;;;;;;7.23;2.90;;;;;;;17.66;58.92;96602.25;10401147;28;20292;-29
2023/12/23 03:58:29;;;;;;;5.80;3.33;;;;;;;17.67;58.51;96609.00;10402470;28;20840;-30
2023/12/23 04:03:29;;;;;;;7.27;3.53;;;;;;;17.63;58.48;96599.72;10405579;28;20462;-29
2023/12/23 04:08:30;;;;;;;6.87;3.00;;;;;;;17.70;58.49;96611.53;10432462;28;20511;-29
2023/12/23 04:13:33;;;;;;;6.30;3.43;;;;;;;17.69;58.58;96595.53;10404321;28;20466;-30
2023/12/23 04:18:33;;;;;;;5.55;3.33;;;;;;;17.66;58.86;96602.25;10405475;28;20303;-29
2023/12/23 04:23:35;;;;;;;6.28;2.67;;;;;;;17.65;58.92;96615.78;10404511;28;20029;-29
2023/12/23 04:28:36;;;;;;;5.55;2.85;;;;;;;17.65;58.69;96603.13;10423994;28;20039;-31
2023/12/23 04:33:37;;;;;;;5.97;2.95;;;;;;;17.62;58.97;96596.34;10400879;28;20025;-29
2023/12/23 04:38:38;;;;;;;9.57;4.18;;;;;;;17.68;58.72;96605.63;10404265;28;20032;-29
2023/12/23 04:43:39;;;;;;;10.65;3.10;;;;;;;17.67;59.00;96586.22;10404919;28;20060;-29
2023/12/23 04:48:39;;;;;;;8.02;3.55;;;;;;;17.64;58.91;96578.63;10402681;28;20768;-29
2023/12/23 04:53:40;;;;;;;6.78;3.20;;;;;;;17.66;58.38;96577.78;10428534;28;20029;-29
2023/12/23 04:58:40;;;;;;;6.77;2.83;;;;;;;17.59;58.84;96585.38;10399751;28;20072;-30
2023/12/23 05:03:41;;;;;;;6.00;2.90;;;;;;;17.65;58.86;96593.81;10400401;28;20021;-30
2023/12/23 05:08:42;;;;;;;5.60;2.80;;;;;;;17.71;58.53;96590.44;10405801;28;20119;-29
2023/12/23 05:13:42;;;;;;;4.33;2.37;;;;;;;17.68;58.77;96595.50;10402688;28;20116;-29
2023/12/23 05:18:43;;;;;;;5.53;2.65;;;;;;;17.64;58.93;96598.88;10404008;28;20030;-32
2023/12/23 05:23:44;;;;;;;5.28;2.60;;;;;;;17.65;58.70;96598.06;10394399;28;20112;-30
2023/12/23 05:28:44;;;;;;;8.53;2.87;;;;;;;17.66;58.89;96567.66;10398807;28;20034;-29
2023/12/23 05:33:45;;;;;;;4.68;2.80;;;;;;;17.68;58.72;96572.72;10403053;28;20088;-29
2023/12/23 05:38:45;;;;;;;8.52;3.13;;;;;;;17.66;58.73;96584.53;10400791;28;20086;-29
2023/12/23 05:43:46;;;;;;;5.30;2.53;;;;;;;17.67;58.97;96568.50;10404487;28;20029;-31
2023/12/23 05:48:46;;;;;;;7.63;2.70;;;;;;;17.65;59.20;96568.50;10403132;28;20037;-29
2023/12/23 05:53:46;;;;;;;5.23;2.80;;;;;;;17.64;59.08;96583.69;10403007;28;20033;-30
2023/12/23 05:58:47;;;;;;;3.97;2.40;;;;;;;17.63;58.87;96592.13;10398664;28;20033;-29
2023/12/23 06:03:47;;;;;;;3.77;2.50;;;;;;;17.69;59.02;96593.00;10402373;28;20072;-29
2023/12/23 06:08:47;;;;;;;5.97;2.80;;;;;;;17.66;58.81;96605.63;10401400;28;20030;-29
2023/12/23 06:13:48;;;;;;;6.45;2.13;;;;;;;17.69;58.83;96607.31;10396833;28;20064;-29
2023/12/23 06:18:48;;;;;;;5.37;2.63;;;;;;;17.70;58.66;96609.00;10396266;28;20404;-29
2023/12/23 06:23:48;;;;;;;5.13;2.60;;;;;;;17.68;58.56;96630.94;10404399;28;20033;-30
2023/12/23 06:28:49;;;;;;;4.37;2.30;;;;;;;17.63;58.72;96607.31;10400397;28;20109;-31
2023/12/23 06:33:49;;;;;;;4.47;2.00;;;;;;;17.66;58.46;96587.06;10396106;28;20029;-29
2023/12/23 06:38:49;;;;;;;3.90;1.77;;;;;;;17.63;58.09;96571.88;10404205;28;20120;-29
2023/12/23 06:43:50;;;;;;;3.73;1.93;;;;;;;17.64;58.01;96581.16;10396737;28;20033;-30
2023/12/23 06:48:53;;;;;;;3.83;1.87;;;;;;;17.62;58.03;96590.44;10401025;28;20098;-29
2023/12/23 06:53:55;;;;;;;7.30;1.83;;;;;;;17.59;57.93;96578.59;10397876;28;20431;-31
2023/12/23 06:58:56;;;;;;;3.65;1.70;;;;;;;17.62;57.50;96575.25;10396279;28;20025;-30
2023/12/23 07:03:56;;;;;;;2.90;1.63;;;;;;;17.60;57.45;96592.13;10400283;28;20025;-30
2023/12/23 07:08:56;;;;;;;2.50;1.67;;;;;;;17.56;57.51;96603.09;10398732;28;20026;-29
2023/12/23 07:13:57;;;;;;;3.23;1.90;;;;;;;17.61;57.29;96599.72;10402953;28;20037;-29
2023/12/23 07:18:57;;;;;;;3.10;1.27;;;;;;;17.57;57.09;96599.72;10400297;28;20082;-29
2023/12/23 07:23:58;;;;;;;2.77;1.77;;;;;;;17.58;57.27;96609.81;10404588;28;20510;-29
2023/12/23 07:28:58;;;;;;;2.00;1.30;;;;;;;17.58;57.07;96614.06;10403425;28;20520;-29
2023/12/23 07:33:59;;;;;;;2.63;1.77;;;;;;;17.61;56.76;96629.25;10402510;28;20447;-29
2023/12/23 07:39:00;;;;;;;2.58;1.35;;;;;;;17.60;56.76;96610.69;10410718;28;20296;-29
2023/12/23 07:44:00;;;;;;;2.70;1.70;;;;;;;17.60;56.59;96602.25;10407912;28;20381;-29
2023/12/23 07:49:00;;;;;;;2.63;1.20;;;;;;;17.59;56.29;96605.63;10401565;28;20563;-29
2023/12/23 07:54:03;;;;;;;1.63;1.00;;;;;;;17.57;56.65;96582.00;10408582;28;20041;-29
2023/12/23 07:59:03;;;;;;;1.60;1.25;;;;;;;17.49;56.04;96574.38;10406538;28;20093;-30
2023/12/23 08:04:04;;;;;;;3.40;1.60;;;;;;;17.67;56.01;96614.06;10405752;28;20496;-29
2023/12/23 08:09:04;;;;;;;4.35;2.70;;;;;;;17.66;56.25;96620.00;10408030;28;20511;-29
2023/12/23 08:14:05;;;;;;;5.03;2.30;;;;;;;17.74;56.46;96618.31;10409546;28;20419;-30
2023/12/23 08:19:05;;;;;;;11.77;5.37;;;;;;;17.71;56.94;96630.94;10405794;28;20045;-29
2023/12/23 08:24:06;;;;;;;13.67;4.60;;;;;;;17.71;56.89;96646.13;10408207;28;20284;-29
2023/12/23 08:29:06;;;;;;;12.95;6.18;;;;;;;17.71;57.04;96674.00;10404831;28;20358;-31
2023/12/23 08:34:07;;;;;;;13.97;6.67;;;;;;;17.61;59.08;96678.22;10405098;28;20049;-30
2023/12/23 08:39:07;;;;;;;15.82;7.43;;;;;;;17.60;58.71;96675.66;10405239;28;20710;-30
2023/12/23 08:44:08;;;;;;;16.53;8.40;;;;;;;17.64;58.39;96654.56;10406097;28;20044;-30
2023/12/23 08:49:10;;;;;;;18.10;8.20;;;;;;;17.62;58.79;96679.91;10394426;28;20804;-30
2023/12/23 08:54:12;;;;;;;18.58;9.13;;;;;;;17.66;58.38;96693.41;10403636;28;20049;-31
2023/12/23 08:59:12;;;;;;;19.88;8.48;;;;;;;17.53;58.79;96668.88;10402360;28;20087;-30
2023/12/23 09:04:13;;;;;;;19.67;8.93;;;;;;;17.57;58.67;96678.19;10402367;28;20574;-30
2023/12/23 09:09:13;;;;;;;17.15;9.30;;;;;;;17.54;58.05;96673.09;10403191;28;20283;-30
2023/12/23 09:14:15;;;;;;;20.90;11.73;;;;;;;17.60;58.91;96685.78;10403865;28;20507;-30
2023/12/23 09:19:15;;;;;;;26.25;12.85;;;;;;;17.66;58.25;96678.22;10400922;28;20064;-30
2023/12/23 09:24:15;;;;;;;26.33;14.33;;;;;;;17.66;59.03;96671.44;10385066;28;20045;-30
2023/12/23 09:29:16;;;;;;;30.50;13.07;;;;;;;17.73;57.83;96679.94;10403324;28;20487;-30
2023/12/23 09:34:20;;;;;;;30.70;14.53;;;;;;;17.72;58.75;96714.50;10405342;28;20450;-30
2023/12/23 09:39:21;;;;;;;27.73;13.55;;;;;;;17.75;58.13;96683.31;10404947;28;20272;-31
2023/12/23 09:44:22;;;;;;;29.13;13.70;;;;;;;17.74;57.82;96737.31;10403605;28;20033;-30
2023/12/23 09:49:24;;;;;;;26.33;13.32;;;;;;;17.94;57.13;96725.53;10404214;28;20056;-30
2023/12/23 09:54:27;;;;;;;29.33;12.75;;;;;;;17.76;57.51;96720.44;10400926;28;20033;-30
2023/12/23 09:59:28;;;;;;;32.42;13.45;;;;;;;17.83;58.45;96724.69;10405876;28;20052;-33
2023/12/23 10:04:29;;;;;;;30.60;14.60;;;;;;;17.85;58.13;96723.00;10404027;28;20056;-31
2023/12/23 10:09:30;;;;;;;33.35;11.43;;;;;;;17.93;58.33;96741.59;10403965;28;20086;-31
2023/12/23 10:14:30;;;;;;;30.83;11.88;;;;;;;18.01;58.28;96737.38;10403223;28;20045;-31
2023/12/23 10:19:31;;;;;;;29.88;13.18;;;;;;;18.07;58.64;96752.59;10401306;28;20059;-30
2023/12/23 10:24:31;;;;;;;29.35;13.40;;;;;;;18.06;58.24;96758.47;10396042;28;20022;-31
2023/12/23 10:29:34;;;;;;;23.48;12.20;;;;;;;17.90;58.62;96739.06;10400312;28;20026;-31
2023/12/23 10:34:43;;;;;;;36.35;14.65;;;;;;;17.86;58.90;96735.66;10401731;28;20415;-31
2023/12/23 10:39:54;;;;;;;28.38;13.60;;;;;;;17.83;58.92;96744.94;10402059;28;20044;-30
2023/12/23 10:44:57;;;;;;;28.27;12.75;;;;;;;17.84;58.49;96749.16;10402813;28;20033;-31
2023/12/23 10:49:59;;;;;;;29.02;12.48;;;;;;;17.85;58.63;96720.47;10392822;28;20555;-31
2023/12/23 10:55:03;;;;;;;24.23;12.05;;;;;;;17.86;58.12;96727.22;10398043;28;20538;-30
2023/12/23 11:00:05;;;;;;;24.52;11.70;;;;;;;17.85;58.41;96726.38;10402029;28;20439;-30
2023/12/23 11:05:08;;;;;;;24.25;10.43;;;;;;;17.86;57.92;96724.69;10403797;28;20029;-30
2023/12/23 11:10:10;;;;;;;20.10;9.90;;;;;;;17.72;58.53;96701.00;10402071;28;20552;-30
2023/12/23 11:15:11;;;;;;;21.98;9.93;;;;;;;17.85;58.01;96705.25;10401581;28;20037;-30
2023/12/23 11:20:31;;;;;;;25.00;11.98;;;;;;;17.86;58.03;96696.81;10400680;28;20057;-31
2023/12/23 11:25:38;;;;;;;21.58;10.43;;;;;;;17.86;58.53;96700.22;10398250;28;20030;-30
2023/12/23 11:30:49;;;;;;;22.85;10.32;;;;;;;17.87;58.57;96699.38;10398256;28;20040;-31
2023/12/23 11:35:55;;;;;;;20.02;10.20;;;;;;;17.87;58.46;96688.38;10399930;28;20656;-31
2023/12/23 11:40:55;;;;;;;16.85;8.90;;;;;;;17.82;58.22;96687.53;10396034;28;20731;-27
2023/12/23 11:45:56;;;;;;;21.57;11.33;;;;;;;17.81;58.03;96680.75;10399901;28;20029;-30
2023/12/23 11:50:59;;;;;;;18.50;9.50;;;;;;;17.84;57.73;96683.31;10402996;28;20291;-31
2023/12/23 11:56:00;;;;;;;22.67;9.02;;;;;;;17.79;58.10;96679.91;10396200;28;20060;-30
2023/12/23 12:01:00;;;;;;;16.95;7.68;;;;;;;17.64;55.25;96668.06;10394188;28;20086;-31
2023/12/23 12:06:02;;;;;;;14.98;7.75;;;;;;;17.75;57.07;96673.16;10401414;28;20087;-32
2023/12/23 12:11:03;;;;;;;16.15;8.18;;;;;;;17.76;57.33;96684.97;10405703;28;20553;-30
2023/12/23 12:16:04;;;;;;;16.05;8.23;;;;;;;17.72;57.57;96673.16;10405507;28;20051;-31
2023/12/23 12:21:05;;;;;;;18.17;7.90;;;;;;;17.80;56.74;96671.47;10407606;28;20037;-30
2023/12/23 12:26:07;;;;;;;14.05;6.68;;;;;;;17.78;56.53;96663.03;10409271;28;20643;-30
2023/12/23 12:31:13;;;;;;;12.40;6.63;;;;;;;17.87;57.28;96693.44;10413375;28;20404;-30
2023/12/23 12:36:16;;;;;;;11.63;6.53;;;;;;;17.91;57.08;96695.16;10414561;28;20042;-30
2023/12/23 12:41:17;;;;;;;14.98;6.72;;;;;;;17.92;57.72;96707.81;10414173;28;20729;-31
2023/12/23 12:46:17;;;;;;;11.50;5.88;;;;;;;17.91;58.28;96697.69;10405802;28;20036;-30
2023/12/23 12:51:18;;;;;;;12.38;6.45;;;;;;;17.87;58.17;96701.03;10405685;28;20033;-31
2023/12/23 12:56:22;;;;;;;14.38;6.22;;;;;;;17.89;57.88;96691.75;10404177;28;20038;-30
2023/12/23 13:01:22;;;;;;;11.77;5.35;;;;;;;17.96;57.61;96723.84;10407293;28;20037;-31
2023/12/23 13:06:23;;;;;;;6.85;4.35;;;;;;;17.87;56.77;96723.84;10407833;28;20075;-31
2023/12/23 13:11:23;;;;;;;14.93;5.00;;;;;;;17.93;56.95;96736.53;10404177;28;20043;-31
2023/12/23 13:16:24;;;;;;;11.68;5.25;;;;;;;17.93;56.95;96737.34;10398705;28;20037;-30
2023/12/23 13:21:24;;;;;;;9.87;4.87;;;;;;;17.98;56.94;96732.31;10404315;28;20076;-30
2023/12/23 13:26:25;;;;;;;8.13;5.00;;;;;;;17.97;56.66;96740.72;10399219;28;20060;-30
2023/12/23 13:31:25;;;;;;;8.98;3.75;;;;;;;17.91;55.91;96723.00;10404821;28;20419;-30
2023/12/23 13:36:26;;;;;;;8.90;3.70;;;;;;;17.94;56.00;96726.41;10406633;28;20038;-30
2023/12/23 13:41:28;;;;;;;7.13;3.80;;;;;;;17.97;56.45;96723.88;10401770;28;20092;-30
2023/12/23 13:46:28;;;;;;;8.43;4.07;;;;;;;17.98;56.39;96737.38;10404350;28;20804;-30
2023/12/23 13:51:28;;;;;;;8.83;4.37;;;;;;;17.96;56.74;96726.38;10405635;28;20048;-30
2023/12/23 13:56:29;;;;;;;6.80;3.60;;;;;;;17.94;56.59;96728.06;10401767;28;20606;-31
2023/12/23 14:01:31;;;;;;;6.87;4.47;;;;;;;17.96;56.77;96742.44;10400137;28;20375;-32
2023/12/23 14:06:32;;;;;;;7.70;2.95;;;;;;;17.76;54.55;96730.56;10401564;28;20284;-30
2023/12/23 14:11:32;;;;;;;4.17;2.63;;;;;;;17.89;55.59;96722.13;10397473;28;20601;-30
2023/12/23 14:16:33;;;;;;;8.53;2.83;;;;;;;17.85;55.70;96738.19;10399789;28;20299;-33
2023/12/23 14:21:34;;;;;;;6.63;3.05;;;;;;;17.82;55.59;96746.63;10399624;28;20056;-31
2023/12/23 14:26:35;;;;;;;12.60;3.40;;;;;;;17.86;55.60;96738.19;10403782;28;20029;-30
2023/12/23 14:31:35;;;;;;;6.30;2.80;;;;;;;17.88;56.28;96755.91;10394922;28;20091;-31
2023/12/23 14:36:35;;;;;;;6.40;2.90;;;;;;;17.90;56.00;96764.38;10404501;28;20037;-30
2023/12/23 14:41:36;;;;;;;6.10;2.20;;;;;;;17.88;56.07;96748.31;10397818;28;20037;-30
2023/12/23 14:46:37;;;;;;;5.32;2.55;;;;;;;17.91;56.18;96768.59;10401381;28;20025;-30
2023/12/23 14:51:40;;;;;;;6.80;2.05;;;;;;;17.55;54.21;96773.50;10404181;28;20555;-30
2023/12/23 14:56:41;;;;;;;9.05;2.80;;;;;;;17.66;54.66;96775.25;10400525;28;20407;-30
2023/12/23 15:01:41;;;;;;;7.27;3.33;;;;;;;17.77;56.25;96767.69;10399170;28;20029;-30
2023/12/23 15:06:42;;;;;;;5.57;2.27;;;;;;;17.81;54.89;96779.53;10402025;28;20087;-30
2023/12/23 15:11:45;;;;;;;4.37;2.63;;;;;;;17.72;56.35;96769.34;10396212;28;20029;-31
2023/12/23 15:16:45;;;;;;;7.47;3.03;;;;;;;17.81;56.63;96794.72;10400272;28;20745;-30
2023/12/23 15:21:45;;;;;;;8.00;3.60;;;;;;;17.77;56.86;96798.09;10402456;28;20086;-31
2023/12/23 15:26:46;;;;;;;6.60;2.60;;;;;;;17.79;56.99;96801.47;10398607;28;20032;-33
2023/12/23 15:31:47;;;;;;;6.68;2.53;;;;;;;17.79;57.00;96801.47;10399697;28;20296;-31
2023/12/23 15:36:47;;;;;;;7.97;2.80;;;;;;;17.75;57.41;96823.41;10402536;28;20657;-30
2023/12/23 15:41:50;;;;;;;7.38;2.80;;;;;;;17.74;57.09;96793.03;10401480;28;20030;-30
2023/12/23 15:46:51;;;;;;;7.93;2.40;;;;;;;17.77;57.25;96814.16;10406503;28;20037;-30
2023/12/23 15:51:51;;;;;;;6.70;2.28;;;;;;;17.76;57.18;96802.28;10410361;28;20562;-30
2023/12/23 15:56:52;;;;;;;5.47;2.83;;;;;;;17.71;57.08;96785.41;10404062;28;20029;-31
2023/12/23 16:01:53;;;;;;;6.45;2.60;;;;;;;17.79;57.39;96798.94;10406384;28;20025;-31
2023/12/23 16:06:53;;;;;;;5.27;2.27;;;;;;;17.80;57.53;96798.09;10409615;28;20035;-30
2023/12/23 16:11:53;;;;;;;6.68;2.95;;;;;;;17.74;57.25;96791.31;10404985;28;20048;-34
2023/12/23 16:16:54;;;;;;;5.17;2.27;;;;;;;17.74;57.08;96787.97;10405737;28;20025;-30
2023/12/23 16:21:54;;;;;;;6.45;2.60;;;;;;;17.76;57.22;96806.53;10408777;28;20025;-31
2023/12/23 16:26:55;;;;;;;4.70;2.27;;;;;;;17.76;57.26;96804.81;10407672;28;20128;-30
2023/12/23 16:31:55;;;;;;;4.80;2.23;;;;;;;17.72;57.02;96790.47;10405145;28;20037;-30
2023/12/23 16:36:55;;;;;;;4.78;2.88;;;;;;;17.79;56.89;96804.00;10408621;28;20033;-31
2023/12/23 16:41:56;;;;;;;5.67;2.60;;;;;;;17.75;57.18;96803.13;10406542;28;20040;-30
2023/12/23 16:46:56;;;;;;;4.67;1.90;;;;;;;17.75;56.96;96814.97;10404867;28;20053;-30
2023/12/23 16:51:58;;;;;;;5.43;2.20;;;;;;;17.76;57.18;96801.47;10406189;28;20041;-30
2023/12/23 16:56:58;;;;;;;2.60;2.08;;;;;;;17.74;56.94;96828.47;10402271;28;20034;-30
2023/12/23 17:01:58;;;;;;;3.97;2.23;;;;;;;17.74;56.94;96825.94;10404672;28;20673;-30
2023/12/23 17:06:59;;;;;;;4.40;2.67;;;;;;;17.68;56.93;96803.13;10408138;28;20049;-30
2023/12/23 17:12:00;;;;;;;5.00;2.45;;;;;;;17.74;56.47;96815.81;10404653;28;20045;-31
2023/12/23 17:17:00;;;;;;;3.15;1.90;;;;;;;17.73;56.77;96839.44;10404092;28;20550;-30
2023/12/23 17:22:01;;;;;;;4.30;2.67;;;;;;;17.73;57.00;96831.84;10407232;28;20086;-30
2023/12/23 17:27:01;;;;;;;8.90;3.83;;;;;;;17.73;56.57;96839.44;10398819;28;20361;-30
2023/12/23 17:32:02;;;;;;;3.90;2.28;;;;;;;17.74;56.34;96844.50;10398045;28;20342;-30
2023/12/23 17:37:02;;;;;;;3.42;1.70;;;;;;;17.68;56.56;96823.38;10406549;28;20117;-32
2023/12/23 17:42:03;;;;;;;2.80;1.83;;;;;;;17.67;56.50;96817.44;10404663;28;20037;-30
2023/12/23 17:47:03;;;;;;;6.57;2.13;;;;;;;17.67;56.49;96847.00;10389069;28;20029;-30
2023/12/23 17:52:04;;;;;;;3.17;2.37;;;;;;;17.75;56.52;96843.66;10401063;28;20116;-30
2023/12/23 17:57:05;;;;;;;2.50;1.65;;;;;;;17.69;56.52;96846.19;10397977;28;20292;-30
2023/12/23 18:02:05;;;;;;;3.73;2.03;;;;;;;17.70;56.24;96847.88;10390117;28;20573;-32
2023/12/23 18:07:05;;;;;;;3.33;1.80;;;;;;;17.73;56.50;96852.09;10385224;28;20038;-30
2023/12/23 18:12:06;;;;;;;4.17;2.00;;;;;;;17.72;56.35;96855.44;10393909;28;20042;-31
2023/12/23 18:17:06;;;;;;;3.28;1.80;;;;;;;17.69;56.62;96860.50;10392004;28;20402;-31
2023/12/23 18:22:06;;;;;;;2.60;1.70;;;;;;;17.74;56.39;96861.41;10397093;28;20029;-31
2023/12/23 18:27:08;;;;;;;2.80;1.63;;;;;;;17.73;56.42;96854.63;10401806;28;20033;-30
2023/12/23 18:32:08;;;;;;;3.67;1.67;;;;;;;17.65;56.25;96833.50;10390120;28;20021;-30
2023/12/23 18:37:09;;;;;;;2.13;1.70;;;;;;;17.72;56.51;96860.50;10404849;28;20411;-31
2023/12/23 18:42:09;;;;;;;2.60;1.67;;;;;;;17.73;56.29;96868.13;10402134;28;20034;-30
2023/12/23 18:47:10;;;;;;;2.57;2.03;;;;;;;17.72;56.47;96852.91;10402367;28;20712;-30
2023/12/23 18:52:10;;;;;;;3.70;1.60;;;;;;;17.72;56.42;96866.44;10388571;28;20284;-30
2023/12/23 18:57:10;;;;;;;3.50;1.97;;;;;;;17.71;56.32;96868.94;10392500;28;20042;-30
2023/12/23 19:02:13;;;;;;;1.80;1.30;;;;;;;17.69;56.64;96868.09;10388628;28;20044;-30
2023/12/23 19:07:13;;;;;;;3.63;2.22;;;;;;;17.71;56.28;96863.88;10389258;28;20128;-32
2023/12/23 19:12:14;;;;;;;2.47;1.67;;;;;;;17.68;56.68;96859.66;10395930;28;20086;-30
2023/12/23 19:17:15;;;;;;;4.00;1.38;;;;;;;17.69;56.57;96851.25;10408646;28;20052;-32
2023/12/23 19:22:15;;;;;;;3.25;1.67;;;;;;;17.73;56.50;96849.56;10410085;28;20037;-32
2023/12/23 19:27:15;;;;;;;2.97;1.53;;;;;;;17.71;56.65;96846.16;10392690;28;20048;-30
2023/12/23 19:32:16;;;;;;;2.47;1.33;;;;;;;17.75;56.28;96865.63;10396255;28;20298;-30
2023/12/23 19:37:17;;;;;;;4.60;1.60;;;;;;;17.76;55.70;96854.66;10401148;28;20041;-31
2023/12/23 19:42:17;;;;;;;3.80;1.90;;;;;;;17.73;56.51;96854.63;10402128;28;20075;-30
2023/12/23 19:47:18;;;;;;;3.83;1.75;;;;;;;17.75;56.66;96866.44;10411324;28;20095;-30
2023/12/23 19:52:19;;;;;;;6.15;1.80;;;;;;;17.72;56.72;96865.56;10401293;28;20080;-30
2023/12/23 19:57:19;;;;;;;7.65;1.75;;;;;;;17.68;56.67;96846.16;10401139;28;20037;-30
2023/12/23 20:02:19;;;;;;;2.60;1.65;;;;;;;17.63;56.62;96836.00;10398347;28;20034;-31
2023/12/23 20:07:20;;;;;;;2.57;1.93;;;;;;;17.69;56.85;96850.38;10401220;28;20037;-30
2023/12/23 20:12:20;;;;;;;3.55;1.95;;;;;;;17.60;57.03;96847.81;10402257;28;20041;-30
2023/12/23 20:17:20;;;;;;;8.20;3.30;;;;;;;17.68;57.03;96861.34;10392690;28;20045;-30
2023/12/23 20:22:21;;;;;;;5.40;2.83;;;;;;;17.71;56.80;96854.63;10404718;28;20043;-31
2023/12/23 20:27:21;;;;;;;8.60;2.90;;;;;;;17.72;56.83;96845.31;10402505;28;20037;-30
2023/12/23 20:32:21;;;;;;;7.57;3.47;;;;;;;17.72;57.05;96842.78;10402021;28;20462;-31
2023/12/23 20:37:22;;;;;;;6.17;3.50;;;;;;;17.74;56.84;96838.59;10405436;28;20026;-30
2023/12/23 20:42:24;;;;;;;6.73;3.37;;;;;;;17.77;56.75;96828.47;10415677;28;20025;-30
2023/12/23 20:47:24;;;;;;;7.75;3.17;;;;;;;17.80;56.70;96847.06;10401313;28;20500;-30
2023/12/23 20:52:25;;;;;;;5.10;2.73;;;;;;;17.80;56.74;96851.28;10402491;28;20038;-31
2023/12/23 20:57:25;;;;;;;4.47;3.20;;;;;;;17.83;56.52;96854.66;10403055;28;20041;-30
2023/12/23 21:02:26;;;;;;;4.00;2.40;;;;;;;17.80;56.73;96858.88;10395754;28;20129;-31
2023/12/23 21:07:26;;;;;;;5.00;3.03;;;;;;;17.83;56.75;96869.84;10399781;28;20119;-30
2023/12/23 21:12:27;;;;;;;8.17;3.40;;;;;;;17.77;57.12;96859.72;10405648;28;20033;-31
2023/12/23 21:17:27;;;;;;;9.70;3.60;;;;;;;17.78;56.85;96875.75;10396739;28;20421;-32
2023/12/23 21:22:27;;;;;;;9.77;4.20;;;;;;;17.79;57.17;96868.16;10402922;28;20037;-30
2023/12/23 21:27:29;;;;;;;15.60;4.93;;;;;;;17.79;57.30;96872.38;10399759;28;20045;-31
2023/12/23 21:32:29;;;;;;;9.82;4.82;;;;;;;17.86;57.21;96880.03;10400031;28;20038;-32
2023/12/23 21:37:32;;;;;;;12.60;5.28;;;;;;;17.70;56.99;96841.94;10398052;28;20033;-31
2023/12/23 21:42:32;;;;;;;9.77;5.60;;;;;;;17.86;57.00;96869.03;10392204;28;20531;-30
2023/12/23 21:47:33;;;;;;;15.93;5.87;;;;;;;17.80;57.29;96854.66;10391551;28;20120;-32
2023/12/23 21:52:33;;;;;;;10.37;5.10;;;;;;;17.71;57.61;96852.09;10394597;28;20149;-31
2023/12/23 21:57:33;;;;;;;16.13;5.73;;;;;;;17.76;57.54;96841.97;10391276;28;20432;-31
2023/12/23 22:02:34;;;;;;;14.80;5.20;;;;;;;17.73;57.18;96827.63;10393609;28;20064;-30
2023/12/23 22:07:34;;;;;;;12.93;5.70;;;;;;;17.78;57.28;96847.88;10393580;28;20049;-31
2023/12/23 22:12:34;;;;;;;12.17;5.63;;;;;;;17.73;57.35;96849.56;10388816;28;20036;-30
2023/12/23 22:17:35;;;;;;;12.70;5.60;;;;;;;17.77;57.24;96851.25;10394667;28;20029;-30
2023/12/23 22:22:35;;;;;;;14.10;5.67;;;;;;;17.77;57.22;96869.00;10396374;28;20121;-31
2023/12/23 22:27:36;;;;;;;14.55;5.95;;;;;;;17.74;57.27;96884.19;10397644;28;20396;-31
2023/12/23 22:32:36;;;;;;;19.13;7.23;;;;;;;17.70;57.60;96880.78;10395209;28;20408;-31
2023/12/23 22:37:36;;;;;;;9.80;4.90;;;;;;;17.71;57.86;96874.88;10404886;28;20488;-30
2023/12/23 22:42:37;;;;;;;13.17;5.03;;;;;;;17.73;57.57;96872.38;10401604;28;20542;-31
2023/12/23 22:47:37;;;;;;;16.60;6.20;;;;;;;17.71;57.75;96879.09;10384943;28;20292;-30
2023/12/23 22:52:38;;;;;;;14.83;5.03;;;;;;;17.72;57.56;96871.50;10393693;28;20030;-30
2023/12/23 22:57:38;;;;;;;13.63;5.88;;;;;;;17.72;57.59;96870.63;10382850;28;20123;-33
2023/12/23 23:02:38;;;;;;;13.43;4.80;;;;;;;17.68;57.87;96874.00;10394119;28;20820;-30
2023/12/23 23:07:41;;;;;;;11.88;5.05;;;;;;;17.69;57.99;96880.75;10397974;28;20397;-31
2023/12/23 23:12:43;;;;;;;14.60;6.25;;;;;;;17.65;57.81;96879.06;10387342;28;20033;-30